Spokane Valley, Washington
Current Conditions -  °F | °C
As of 7:53 AM on Friday 24 Oct 2014 (Local Time) from KSFF Reporting Station
Few Clouds Few Clouds  
Wind Chill: 46°   Ceiling: Unl
Heat Index: 46°   Visibility: 10mi
Dew Point: 41°   Wind: 3mph
Humidity: 83%   Direction: 40°NE
Pressure: 30.09"   Gusts: NA
Location:  47.6956°N, 117.11°W
Report Text: KSFF 241453Z 04003KT 10SM FEW110 08/05 A3009 RMK AO2 SLP190 T00780050 53010
Loading
Personal Weather Stations






























Interactive Weather Map
Tropical Storm Tracking
New forecast layout! Learn more

10-Day Weather Forecast

Advertisements
Track Severe Weather on mobile